sensor_id;sensor_type;location;lat;lon;timestamp;temperature;humidity
41756;DHT22;27435;48.480;9.258;2022-12-24T00:01:08;10.40;99.00
41756;DHT22;27435;48.480;9.258;2022-12-24T00:03:36;10.40;99.00
41756;DHT22;27435;48.480;9.258;2022-12-24T00:06:14;10.40;99.00
41756;DHT22;27435;48.480;9.258;2022-12-24T00:08:40;10.40;99.00
41756;DHT22;27435;48.480;9.258;2022-12-24T00:11:06;10.30;99.00
41756;DHT22;27435;48.480;9.258;2022-12-24T00:13:32;10.30;99.00
41756;DHT22;27435;48.480;9.258;2022-12-24T00:15:58;10.30;99.00
41756;DHT22;27435;48.480;9.258;2022-12-24T00:18:23;10.30;99.00
41756;DHT22;27435;48.480;9.258;2022-12-24T00:20:49;10.30;99.00
41756;DHT22;27435;48.480;9.258;2022-12-24T00:23:16;10.30;99.00
41756;DHT22;27435;48.480;9.258;2022-12-24T00:25:42;10.30;99.00
41756;DHT22;27435;48.480;9.258;2022-12-24T00:28:08;10.30;99.00
41756;DHT22;27435;48.480;9.258;2022-12-24T00:30:34;10.20;99.00
41756;DHT22;27435;48.480;9.258;2022-12-24T00:32:59;10.20;99.00
41756;DHT22;27435;48.480;9.258;2022-12-24T00:35:25;10.20;99.00
41756;DHT22;27435;48.480;9.258;2022-12-24T00:37:51;10.20;99.00
41756;DHT22;27435;48.480;9.258;2022-12-24T00:40:17;10.20;99.00
41756;DHT22;27435;48.480;9.258;2022-12-24T00:42:43;10.10;99.00
41756;DHT22;27435;48.480;9.258;2022-12-24T00:45:09;10.20;99.00
41756;DHT22;27435;48.480;9.258;2022-12-24T00:47:35;10.20;99.00
41756;DHT22;27435;48.480;9.258;2022-12-24T00:50:01;10.20;99.00
41756;DHT22;27435;48.480;9.258;2022-12-24T00:52:27;10.10;99.00
41756;DHT22;27435;48.480;9.258;2022-12-24T00:54:52;10.10;99.00
41756;DHT22;27435;48.480;9.258;2022-12-24T00:57:18;10.10;99.00
41756;DHT22;27435;48.480;9.258;2022-12-24T00:59:43;10.10;99.00
41756;DHT22;27435;48.480;9.258;2022-12-24T01:02:09;10.00;99.00
41756;DHT22;27435;48.480;9.258;2022-12-24T01:04:35;10.00;99.00
41756;DHT22;27435;48.480;9.258;2022-12-24T01:07:19;10.10;99.00
41756;DHT22;27435;48.480;9.258;2022-12-24T01:09:44;10.10;99.00
41756;DHT22;27435;48.480;9.258;2022-12-24T01:12:10;10.20;99.00
41756;DHT22;27435;48.480;9.258;2022-12-24T01:14:36;10.20;99.00
41756;DHT22;27435;48.480;9.258;2022-12-24T01:17:02;10.30;99.00
41756;DHT22;27435;48.480;9.258;2022-12-24T01:19:28;10.30;99.00
41756;DHT22;27435;48.480;9.258;2022-12-24T01:21:53;10.30;99.00
41756;DHT22;27435;48.480;9.258;2022-12-24T01:24:19;10.20;99.00
41756;DHT22;27435;48.480;9.258;2022-12-24T01:26:45;10.20;99.00
41756;DHT22;27435;48.480;9.258;2022-12-24T01:29:10;10.20;99.00
41756;DHT22;27435;48.480;9.258;2022-12-24T01:31:36;10.20;99.00
41756;DHT22;27435;48.480;9.258;2022-12-24T01:34:01;10.20;99.00
41756;DHT22;27435;48.480;9.258;2022-12-24T01:36:27;10.20;99.00
41756;DHT22;27435;48.480;9.258;2022-12-24T01:38:53;10.30;99.00
41756;DHT22;27435;48.480;9.258;2022-12-24T01:41:20;10.30;99.00
41756;DHT22;27435;48.480;9.258;2022-12-24T01:46:55;10.30;99.00
41756;DHT22;27435;48.480;9.258;2022-12-24T01:49:22;10.40;99.00
41756;DHT22;27435;48.480;9.258;2022-12-24T01:51:52;10.40;99.00
41756;DHT22;27435;48.480;9.258;2022-12-24T01:57:00;10.30;99.00
41756;DHT22;27435;48.480;9.258;2022-12-24T01:59:27;10.30;99.00
41756;DHT22;27435;48.480;9.258;2022-12-24T02:01:53;10.20;99.00
41756;DHT22;27435;48.480;9.258;2022-12-24T02:04:43;10.20;99.00
41756;DHT22;27435;48.480;9.258;2022-12-24T02:07:11;10.20;99.00
41756;DHT22;27435;48.480;9.258;2022-12-24T02:09:38;10.20;99.00
41756;DHT22;27435;48.480;9.258;2022-12-24T02:12:04;10.20;99.00
41756;DHT22;27435;48.480;9.258;2022-12-24T02:14:30;10.20;99.00
41756;DHT22;27435;48.480;9.258;2022-12-24T02:17:30;10.20;99.00
41756;DHT22;27435;48.480;9.258;2022-12-24T02:20:17;10.20;99.00
41756;DHT22;27435;48.480;9.258;2022-12-24T02:23:02;10.10;99.00
41756;DHT22;27435;48.480;9.258;2022-12-24T02:25:41;10.00;99.00
41756;DHT22;27435;48.480;9.258;2022-12-24T02:31:11;10.00;99.00
41756;DHT22;27435;48.480;9.258;2022-12-24T02:33:46;9.90;99.00
41756;DHT22;27435;48.480;9.258;2022-12-24T02:36:25;9.90;99.00
41756;DHT22;27435;48.480;9.258;2022-12-24T02:39:02;9.90;99.00
41756;DHT22;27435;48.480;9.258;2022-12-24T02:41:39;9.90;99.00
41756;DHT22;27435;48.480;9.258;2022-12-24T02:44:27;9.90;99.00
41756;DHT22;27435;48.480;9.258;2022-12-24T02:46:54;9.90;99.00
41756;DHT22;27435;48.480;9.258;2022-12-24T02:49:21;10.00;99.00
41756;DHT22;27435;48.480;9.258;2022-12-24T02:51:46;10.00;99.00
41756;DHT22;27435;48.480;9.258;2022-12-24T02:54:13;10.00;99.00
41756;DHT22;27435;48.480;9.258;2022-12-24T02:57:12;10.00;99.00
41756;DHT22;27435;48.480;9.258;2022-12-24T03:00:05;10.00;99.00
41756;DHT22;27435;48.480;9.258;2022-12-24T03:02:39;10.00;99.00
41756;DHT22;27435;48.480;9.258;2022-12-24T03:07:43;10.10;99.00
41756;DHT22;27435;48.480;9.258;2022-12-24T03:11:13;10.10;99.00
41756;DHT22;27435;48.480;9.258;2022-12-24T03:13:15;10.10;99.00
41756;DHT22;27435;48.480;9.258;2022-12-24T03:15:42;10.10;99.00
41756;DHT22;27435;48.480;9.258;2022-12-24T03:18:11;10.20;99.00
41756;DHT22;27435;48.480;9.258;2022-12-24T03:20:45;10.20;99.00
41756;DHT22;27435;48.480;9.258;2022-12-24T03:23:12;10.20;99.00
41756;DHT22;27435;48.480;9.258;2022-12-24T03:25:40;10.30;99.00
41756;DHT22;27435;48.480;9.258;2022-12-24T03:28:08;10.30;99.00
41756;DHT22;27435;48.480;9.258;2022-12-24T03:30:34;10.30;99.00
41756;DHT22;27435;48.480;9.258;2022-12-24T03:33:00;10.30;99.00
41756;DHT22;27435;48.480;9.258;2022-12-24T03:35:26;10.30;99.00
41756;DHT22;27435;48.480;9.258;2022-12-24T03:37:52;10.30;99.00
41756;DHT22;27435;48.480;9.258;2022-12-24T03:40:18;10.40;99.00
41756;DHT22;27435;48.480;9.258;2022-12-24T03:42:43;10.40;99.00
41756;DHT22;27435;48.480;9.258;2022-12-24T03:45:09;10.50;99.00
41756;DHT22;27435;48.480;9.258;2022-12-24T03:47:35;10.50;99.00
41756;DHT22;27435;48.480;9.258;2022-12-24T03:50:00;10.60;99.00
41756;DHT22;27435;48.480;9.258;2022-12-24T03:52:26;10.50;99.00
41756;DHT22;27435;48.480;9.258;2022-12-24T03:54:52;10.50;99.00
41756;DHT22;27435;48.480;9.258;2022-12-24T03:57:18;10.50;99.00
41756;DHT22;27435;48.480;9.258;2022-12-24T03:59:44;10.40;99.00
41756;DHT22;27435;48.480;9.258;2022-12-24T04:02:09;10.40;99.00
41756;DHT22;27435;48.480;9.258;2022-12-24T04:04:35;10.40;99.00
41756;DHT22;27435;48.480;9.258;2022-12-24T04:07:02;10.40;99.00
41756;DHT22;27435;48.480;9.258;2022-12-24T04:09:28;10.40;99.00
41756;DHT22;27435;48.480;9.258;2022-12-24T04:11:54;10.30;99.00
41756;DHT22;27435;48.480;9.258;2022-12-24T04:14:20;10.30;99.00
41756;DHT22;27435;48.480;9.258;2022-12-24T04:16:45;10.20;99.00
41756;DHT22;27435;48.480;9.258;2022-12-24T04:19:11;10.20;99.00
41756;DHT22;27435;48.480;9.258;2022-12-24T04:21:36;10.20;99.00
41756;DHT22;27435;48.480;9.258;2022-12-24T04:24:02;10.20;99.00
41756;DHT22;27435;48.480;9.258;2022-12-24T04:26:28;10.20;99.00
41756;DHT22;27435;48.480;9.258;2022-12-24T04:28:53;10.20;99.00
41756;DHT22;27435;48.480;9.258;2022-12-24T04:31:19;10.20;99.00
41756;DHT22;27435;48.480;9.258;2022-12-24T04:33:45;10.20;99.00
41756;DHT22;27435;48.480;9.258;2022-12-24T04:36:12;10.20;99.00
41756;DHT22;27435;48.480;9.258;2022-12-24T04:38:39;10.20;99.00
41756;DHT22;27435;48.480;9.258;2022-12-24T04:41:07;10.20;99.00
41756;DHT22;27435;48.480;9.258;2022-12-24T04:43:33;10.20;99.00
41756;DHT22;27435;48.480;9.258;2022-12-24T04:46:07;10.20;99.00
41756;DHT22;27435;48.480;9.258;2022-12-24T04:48:34;10.20;99.00
41756;DHT22;27435;48.480;9.258;2022-12-24T04:51:01;10.20;99.00
41756;DHT22;27435;48.480;9.258;2022-12-24T04:53:28;10.20;99.00
41756;DHT22;27435;48.480;9.258;2022-12-24T04:55:53;10.20;99.00
41756;DHT22;27435;48.480;9.258;2022-12-24T04:58:19;10.20;99.00
41756;DHT22;27435;48.480;9.258;2022-12-24T05:00:44;10.20;99.00
41756;DHT22;27435;48.480;9.258;2022-12-24T05:03:10;10.20;99.00
41756;DHT22;27435;48.480;9.258;2022-12-24T05:05:36;10.20;99.00
41756;DHT22;27435;48.480;9.258;2022-12-24T05:08:02;10.20;99.00
41756;DHT22;27435;48.480;9.258;2022-12-24T05:10:27;10.20;99.00
41756;DHT22;27435;48.480;9.258;2022-12-24T05:12:53;10.10;99.00
41756;DHT22;27435;48.480;9.258;2022-12-24T05:15:19;10.20;99.00
41756;DHT22;27435;48.480;9.258;2022-12-24T05:17:44;10.20;99.00
41756;DHT22;27435;48.480;9.258;2022-12-24T05:20:10;10.20;99.00
41756;DHT22;27435;48.480;9.258;2022-12-24T05:22:36;10.20;99.00
41756;DHT22;27435;48.480;9.258;2022-12-24T05:25:20;10.20;99.00
41756;DHT22;27435;48.480;9.258;2022-12-24T05:28:04;10.30;99.00
41756;DHT22;27435;48.480;9.258;2022-12-24T05:30:30;10.30;99.00
41756;DHT22;27435;48.480;9.258;2022-12-24T05:32:55;10.30;99.00
41756;DHT22;27435;48.480;9.258;2022-12-24T05:35:21;10.40;99.00
41756;DHT22;27435;48.480;9.258;2022-12-24T05:37:46;10.40;99.00
41756;DHT22;27435;48.480;9.258;2022-12-24T05:40:12;10.40;99.00
41756;DHT22;27435;48.480;9.258;2022-12-24T05:42:38;10.40;99.00
41756;DHT22;27435;48.480;9.258;2022-12-24T05:45:04;10.40;99.00
41756;DHT22;27435;48.480;9.258;2022-12-24T05:47:29;10.40;99.00
41756;DHT22;27435;48.480;9.258;2022-12-24T05:49:55;10.40;99.00
41756;DHT22;27435;48.480;9.258;2022-12-24T05:52:20;10.30;99.00
41756;DHT22;27435;48.480;9.258;2022-12-24T05:54:46;10.20;99.00
41756;DHT22;27435;48.480;9.258;2022-12-24T05:57:11;10.10;99.00
41756;DHT22;27435;48.480;9.258;2022-12-24T05:59:37;10.10;99.00
41756;DHT22;27435;48.480;9.258;2022-12-24T06:02:03;10.10;99.00
41756;DHT22;27435;48.480;9.258;2022-12-24T06:04:28;10.10;99.00
41756;DHT22;27435;48.480;9.258;2022-12-24T06:06:54;10.10;99.00
41756;DHT22;27435;48.480;9.258;2022-12-24T06:09:20;10.10;99.00
41756;DHT22;27435;48.480;9.258;2022-12-24T06:11:45;10.10;99.00
41756;DHT22;27435;48.480;9.258;2022-12-24T06:14:11;10.00;99.00
41756;DHT22;27435;48.480;9.258;2022-12-24T06:16:36;9.90;99.00
41756;DHT22;27435;48.480;9.258;2022-12-24T06:19:02;9.90;99.00
41756;DHT22;27435;48.480;9.258;2022-12-24T06:21:28;9.90;99.00
41756;DHT22;27435;48.480;9.258;2022-12-24T06:23:53;10.00;99.00
41756;DHT22;27435;48.480;9.258;2022-12-24T06:26:21;10.00;99.00
41756;DHT22;27435;48.480;9.258;2022-12-24T06:28:48;9.90;99.00
41756;DHT22;27435;48.480;9.258;2022-12-24T06:31:16;9.90;99.00
41756;DHT22;27435;48.480;9.258;2022-12-24T06:33:42;9.80;99.00
41756;DHT22;27435;48.480;9.258;2022-12-24T06:36:13;9.70;99.00
41756;DHT22;27435;48.480;9.258;2022-12-24T06:38:39;9.70;99.00
41756;DHT22;27435;48.480;9.258;2022-12-24T06:41:06;9.60;99.00
41756;DHT22;27435;48.480;9.258;2022-12-24T06:43:32;9.60;99.00
41756;DHT22;27435;48.480;9.258;2022-12-24T06:46:02;9.50;99.00
41756;DHT22;27435;48.480;9.258;2022-12-24T06:48:28;9.50;99.00
41756;DHT22;27435;48.480;9.258;2022-12-24T06:50:54;9.40;99.00
41756;DHT22;27435;48.480;9.258;2022-12-24T06:53:19;9.50;99.00
41756;DHT22;27435;48.480;9.258;2022-12-24T06:55:45;9.50;99.00
41756;DHT22;27435;48.480;9.258;2022-12-24T06:58:11;9.40;99.00
41756;DHT22;27435;48.480;9.258;2022-12-24T07:00:37;9.40;99.00
41756;DHT22;27435;48.480;9.258;2022-12-24T07:03:02;9.40;99.00
41756;DHT22;27435;48.480;9.258;2022-12-24T07:05:28;9.40;99.00
41756;DHT22;27435;48.480;9.258;2022-12-24T07:07:55;9.40;99.00
41756;DHT22;27435;48.480;9.258;2022-12-24T07:10:21;9.40;99.00
41756;DHT22;27435;48.480;9.258;2022-12-24T07:12:47;9.50;99.00
41756;DHT22;27435;48.480;9.258;2022-12-24T07:15:13;9.60;99.00
41756;DHT22;27435;48.480;9.258;2022-12-24T07:17:39;9.50;99.00
41756;DHT22;27435;48.480;9.258;2022-12-24T07:20:06;9.50;99.00
41756;DHT22;27435;48.480;9.258;2022-12-24T07:22:32;9.60;99.00
41756;DHT22;27435;48.480;9.258;2022-12-24T07:24:57;9.60;99.00
41756;DHT22;27435;48.480;9.258;2022-12-24T07:27:23;9.60;99.00
41756;DHT22;27435;48.480;9.258;2022-12-24T07:29:48;9.60;99.00
41756;DHT22;27435;48.480;9.258;2022-12-24T07:32:14;9.60;99.00
41756;DHT22;27435;48.480;9.258;2022-12-24T07:34:40;9.60;99.00
41756;DHT22;27435;48.480;9.258;2022-12-24T07:37:06;9.60;99.00
41756;DHT22;27435;48.480;9.258;2022-12-24T07:39:32;9.60;99.00
41756;DHT22;27435;48.480;9.258;2022-12-24T07:41:58;9.60;99.00
41756;DHT22;27435;48.480;9.258;2022-12-24T07:44:23;9.60;99.00
41756;DHT22;27435;48.480;9.258;2022-12-24T07:46:49;9.60;99.00
41756;DHT22;27435;48.480;9.258;2022-12-24T07:49:15;9.60;99.00
41756;DHT22;27435;48.480;9.258;2022-12-24T07:51:41;9.60;99.00
41756;DHT22;27435;48.480;9.258;2022-12-24T07:54:07;9.50;99.00
41756;DHT22;27435;48.480;9.258;2022-12-24T07:56:33;9.60;99.00
41756;DHT22;27435;48.480;9.258;2022-12-24T07:58:58;9.60;99.00
41756;DHT22;27435;48.480;9.258;2022-12-24T08:01:24;9.70;99.00
41756;DHT22;27435;48.480;9.258;2022-12-24T08:03:50;9.70;99.00
41756;DHT22;27435;48.480;9.258;2022-12-24T08:06:22;9.70;99.00
41756;DHT22;27435;48.480;9.258;2022-12-24T08:08:47;9.60;99.00
41756;DHT22;27435;48.480;9.258;2022-12-24T08:11:13;9.70;99.00
41756;DHT22;27435;48.480;9.258;2022-12-24T08:13:39;9.70;99.00
41756;DHT22;27435;48.480;9.258;2022-12-24T08:16:05;9.90;99.00
41756;DHT22;27435;48.480;9.258;2022-12-24T08:18:31;10.00;98.70
41756;DHT22;27435;48.480;9.258;2022-12-24T08:20:57;10.00;98.00
41756;DHT22;27435;48.480;9.258;2022-12-24T08:23:22;10.10;97.90
41756;DHT22;27435;48.480;9.258;2022-12-24T08:25:48;10.20;97.80
41756;DHT22;27435;48.480;9.258;2022-12-24T08:28:16;10.20;97.80
41756;DHT22;27435;48.480;9.258;2022-12-24T08:30:42;10.20;97.10
41756;DHT22;27435;48.480;9.258;2022-12-24T08:33:09;10.40;96.90
41756;DHT22;27435;48.480;9.258;2022-12-24T08:35:34;10.40;96.80
41756;DHT22;27435;48.480;9.258;2022-12-24T08:38:00;10.50;96.20
41756;DHT22;27435;48.480;9.258;2022-12-24T08:40:26;10.60;96.10
41756;DHT22;27435;48.480;9.258;2022-12-24T08:42:51;10.60;95.60
41756;DHT22;27435;48.480;9.258;2022-12-24T08:45:17;10.60;95.40
41756;DHT22;27435;48.480;9.258;2022-12-24T08:47:43;10.70;95.50
41756;DHT22;27435;48.480;9.258;2022-12-24T08:50:09;10.60;95.30
41756;DHT22;27435;48.480;9.258;2022-12-24T08:52:35;10.60;95.50
41756;DHT22;27435;48.480;9.258;2022-12-24T08:55:01;10.60;96.00
41756;DHT22;27435;48.480;9.258;2022-12-24T08:57:27;10.70;95.90
41756;DHT22;27435;48.480;9.258;2022-12-24T08:59:52;10.70;95.70
41756;DHT22;27435;48.480;9.258;2022-12-24T09:02:18;10.80;95.60
41756;DHT22;27435;48.480;9.258;2022-12-24T09:04:44;10.70;95.70
41756;DHT22;27435;48.480;9.258;2022-12-24T09:07:09;10.80;95.50
41756;DHT22;27435;48.480;9.258;2022-12-24T09:09:35;10.90;95.70
41756;DHT22;27435;48.480;9.258;2022-12-24T09:12:04;11.20;94.90
41756;DHT22;27435;48.480;9.258;2022-12-24T09:14:30;11.30;93.80
41756;DHT22;27435;48.480;9.258;2022-12-24T09:16:55;11.40;94.00
41756;DHT22;27435;48.480;9.258;2022-12-24T09:19:21;11.40;93.80
41756;DHT22;27435;48.480;9.258;2022-12-24T09:21:47;11.40;94.20
41756;DHT22;27435;48.480;9.258;2022-12-24T09:24:13;11.40;93.80
41756;DHT22;27435;48.480;9.258;2022-12-24T09:26:39;11.30;94.10
41756;DHT22;27435;48.480;9.258;2022-12-24T09:29:05;11.20;93.80
41756;DHT22;27435;48.480;9.258;2022-12-24T09:31:32;11.20;93.50
41756;DHT22;27435;48.480;9.258;2022-12-24T09:33:58;11.10;92.60
41756;DHT22;27435;48.480;9.258;2022-12-24T09:36:24;11.10;92.20
41756;DHT22;27435;48.480;9.258;2022-12-24T09:38:49;11.10;93.10
41756;DHT22;27435;48.480;9.258;2022-12-24T09:43:50;11.20;91.70
41756;DHT22;27435;48.480;9.258;2022-12-24T09:46:25;11.30;91.40
41756;DHT22;27435;48.480;9.258;2022-12-24T09:49:00;11.30;91.00
41756;DHT22;27435;48.480;9.258;2022-12-24T09:51:46;11.20;90.90
41756;DHT22;27435;48.480;9.258;2022-12-24T09:54:26;11.20;90.50
41756;DHT22;27435;48.480;9.258;2022-12-24T09:56:53;11.30;89.90
41756;DHT22;27435;48.480;9.258;2022-12-24T09:59:22;11.30;90.10
41756;DHT22;27435;48.480;9.258;2022-12-24T10:01:51;11.30;90.60
41756;DHT22;27435;48.480;9.258;2022-12-24T10:04:20;11.30;90.20
41756;DHT22;27435;48.480;9.258;2022-12-24T10:07:07;11.20;90.30
41756;DHT22;27435;48.480;9.258;2022-12-24T10:09:48;11.10;90.90
41756;DHT22;27435;48.480;9.258;2022-12-24T10:12:27;11.00;91.20
41756;DHT22;27435;48.480;9.258;2022-12-24T10:15:14;11.10;91.50
41756;DHT22;27435;48.480;9.258;2022-12-24T10:28:57;11.80;88.20
41756;DHT22;27435;48.480;9.258;2022-12-24T10:31:26;11.80;87.90
41756;DHT22;27435;48.480;9.258;2022-12-24T10:34:04;11.80;88.40
41756;DHT22;27435;48.480;9.258;2022-12-24T10:36:35;11.90;88.60
41756;DHT22;27435;48.480;9.258;2022-12-24T10:39:00;11.80;88.30
41756;DHT22;27435;48.480;9.258;2022-12-24T10:41:27;11.70;88.30
41756;DHT22;27435;48.480;9.258;2022-12-24T10:43:54;11.80;89.20
41756;DHT22;27435;48.480;9.258;2022-12-24T10:49:06;12.00;88.30
41756;DHT22;27435;48.480;9.258;2022-12-24T10:54:29;11.90;87.90
41756;DHT22;27435;48.480;9.258;2022-12-24T10:57:04;11.90;88.60
41756;DHT22;27435;48.480;9.258;2022-12-24T10:59:39;11.90;88.70
41756;DHT22;27435;48.480;9.258;2022-12-24T11:02:24;12.00;88.40
41756;DHT22;27435;48.480;9.258;2022-12-24T11:04:50;12.00;88.50
41756;DHT22;27435;48.480;9.258;2022-12-24T11:07:21;12.00;88.80
41756;DHT22;27435;48.480;9.258;2022-12-24T11:10:22;11.80;89.30
41756;DHT22;27435;48.480;9.258;2022-12-24T11:12:48;11.80;89.40
41756;DHT22;27435;48.480;9.258;2022-12-24T11:15:43;11.80;89.60
41756;DHT22;27435;48.480;9.258;2022-12-24T11:18:13;12.10;88.90
41756;DHT22;27435;48.480;9.258;2022-12-24T11:20:39;12.30;88.30
41756;DHT22;27435;48.480;9.258;2022-12-24T11:23:05;12.30;87.80
41756;DHT22;27435;48.480;9.258;2022-12-24T11:25:32;12.30;88.00
41756;DHT22;27435;48.480;9.258;2022-12-24T11:28:11;12.40;87.70
41756;DHT22;27435;48.480;9.258;2022-12-24T11:30:37;12.30;87.90
41756;DHT22;27435;48.480;9.258;2022-12-24T11:35:31;12.30;88.10
41756;DHT22;27435;48.480;9.258;2022-12-24T11:40:34;12.40;87.60
41756;DHT22;27435;48.480;9.258;2022-12-24T11:43:01;12.40;87.20
41756;DHT22;27435;48.480;9.258;2022-12-24T11:45:30;12.40;87.40
41756;DHT22;27435;48.480;9.258;2022-12-24T11:47:56;12.60;86.90
41756;DHT22;27435;48.480;9.258;2022-12-24T11:53:14;12.60;86.60
41756;DHT22;27435;48.480;9.258;2022-12-24T11:55:51;12.70;86.20
41756;DHT22;27435;48.480;9.258;2022-12-24T12:03:56;12.80;86.30
41756;DHT22;27435;48.480;9.258;2022-12-24T12:09:13;12.70;86.20
41756;DHT22;27435;48.480;9.258;2022-12-24T12:11:41;12.50;86.30
41756;DHT22;27435;48.480;9.258;2022-12-24T12:14:19;12.40;86.70
41756;DHT22;27435;48.480;9.258;2022-12-24T12:19:52;12.80;85.70
41756;DHT22;27435;48.480;9.258;2022-12-24T12:22:27;12.80;85.30
41756;DHT22;27435;48.480;9.258;2022-12-24T12:24:55;12.50;85.80
41756;DHT22;27435;48.480;9.258;2022-12-24T12:27:30;12.50;86.50
41756;DHT22;27435;48.480;9.258;2022-12-24T12:30:02;12.40;87.10
41756;DHT22;27435;48.480;9.258;2022-12-24T12:32:38;12.40;86.90
41756;DHT22;27435;48.480;9.258;2022-12-24T12:35:31;12.30;87.20
41756;DHT22;27435;48.480;9.258;2022-12-24T12:40:42;12.30;87.30
41756;DHT22;27435;48.480;9.258;2022-12-24T12:57:10;12.30;88.30
41756;DHT22;27435;48.480;9.258;2022-12-24T12:59:41;12.30;88.30
41756;DHT22;27435;48.480;9.258;2022-12-24T13:10:35;11.90;89.70
41756;DHT22;27435;48.480;9.258;2022-12-24T13:18:56;12.10;89.60
41756;DHT22;27435;48.480;9.258;2022-12-24T13:21:27;12.20;88.90
41756;DHT22;27435;48.480;9.258;2022-12-24T13:24:17;12.30;89.00
41756;DHT22;27435;48.480;9.258;2022-12-24T13:27:18;12.50;88.40
41756;DHT22;27435;48.480;9.258;2022-12-24T13:34:52;12.40;87.90
41756;DHT22;27435;48.480;9.258;2022-12-24T13:50:38;12.10;89.70
41756;DHT22;27435;48.480;9.258;2022-12-24T13:53:16;12.00;89.50
41756;DHT22;27435;48.480;9.258;2022-12-24T13:56:18;12.00;89.60
41756;DHT22;27435;48.480;9.258;2022-12-24T13:58:48;11.80;90.20
41756;DHT22;27435;48.480;9.258;2022-12-24T14:01:17;11.80;90.80
41756;DHT22;27435;48.480;9.258;2022-12-24T14:06:26;11.90;89.90
41756;DHT22;27435;48.480;9.258;2022-12-24T14:09:05;11.90;90.30
41756;DHT22;27435;48.480;9.258;2022-12-24T14:14:39;11.80;90.50
41756;DHT22;27435;48.480;9.258;2022-12-24T14:19:43;11.90;90.40
41756;DHT22;27435;48.480;9.258;2022-12-24T14:24:45;11.80;90.60
41756;DHT22;27435;48.480;9.258;2022-12-24T14:27:37;11.70;92.00
41756;DHT22;27435;48.480;9.258;2022-12-24T14:32:45;11.70;92.20
41756;DHT22;27435;48.480;9.258;2022-12-24T14:35:28;11.50;92.70
41756;DHT22;27435;48.480;9.258;2022-12-24T14:40:29;11.50;93.00
41756;DHT22;27435;48.480;9.258;2022-12-24T14:43:19;11.60;92.90
41756;DHT22;27435;48.480;9.258;2022-12-24T14:46:23;11.50;93.30
41756;DHT22;27435;48.480;9.258;2022-12-24T14:48:55;11.50;93.40
41756;DHT22;27435;48.480;9.258;2022-12-24T14:51:48;11.50;94.00
41756;DHT22;27435;48.480;9.258;2022-12-24T14:54:37;11.20;94.00
41756;DHT22;27435;48.480;9.258;2022-12-24T15:02:23;10.90;96.30
41756;DHT22;27435;48.480;9.258;2022-12-24T15:08:03;10.40;97.60
41756;DHT22;27435;48.480;9.258;2022-12-24T15:10:37;10.40;97.60
41756;DHT22;27435;48.480;9.258;2022-12-24T15:15:46;10.40;97.90
41756;DHT22;27435;48.480;9.258;2022-12-24T15:18:15;10.30;98.50
41756;DHT22;27435;48.480;9.258;2022-12-24T15:20:47;10.10;98.80
41756;DHT22;27435;48.480;9.258;2022-12-24T15:23:26;10.10;98.60
41756;DHT22;27435;48.480;9.258;2022-12-24T15:26:13;10.10;98.10
41756;DHT22;27435;48.480;9.258;2022-12-24T15:28:40;10.20;98.00
41756;DHT22;27435;48.480;9.258;2022-12-24T15:31:18;10.20;98.30
41756;DHT22;27435;48.480;9.258;2022-12-24T15:33:46;10.20;98.80
41756;DHT22;27435;48.480;9.258;2022-12-24T15:36:13;10.10;99.00
41756;DHT22;27435;48.480;9.258;2022-12-24T15:38:42;10.10;99.00
41756;DHT22;27435;48.480;9.258;2022-12-24T15:41:23;9.90;99.00
41756;DHT22;27435;48.480;9.258;2022-12-24T15:43:50;9.90;99.00
41756;DHT22;27435;48.480;9.258;2022-12-24T15:46:18;9.80;99.00
41756;DHT22;27435;48.480;9.258;2022-12-24T15:48:45;10.10;99.00
41756;DHT22;27435;48.480;9.258;2022-12-24T15:51:11;10.10;99.00
41756;DHT22;27435;48.480;9.258;2022-12-24T15:53:42;9.90;99.00
41756;DHT22;27435;48.480;9.258;2022-12-24T15:56:26;9.80;99.00
41756;DHT22;27435;48.480;9.258;2022-12-24T15:59:10;9.90;99.00
41756;DHT22;27435;48.480;9.258;2022-12-24T16:01:36;9.90;99.00
41756;DHT22;27435;48.480;9.258;2022-12-24T16:04:35;9.80;99.00
41756;DHT22;27435;48.480;9.258;2022-12-24T16:07:02;9.80;99.00
41756;DHT22;27435;48.480;9.258;2022-12-24T16:09:39;9.50;99.00
41756;DHT22;27435;48.480;9.258;2022-12-24T16:12:14;9.50;99.00
41756;DHT22;27435;48.480;9.258;2022-12-24T16:14:45;9.30;99.00
41756;DHT22;27435;48.480;9.258;2022-12-24T16:17:20;9.20;99.00
41756;DHT22;27435;48.480;9.258;2022-12-24T16:19:48;9.10;99.00
41756;DHT22;27435;48.480;9.258;2022-12-24T16:22:18;9.10;99.00
41756;DHT22;27435;48.480;9.258;2022-12-24T16:25:01;9.20;99.00
41756;DHT22;27435;48.480;9.258;2022-12-24T16:27:26;9.20;99.00
41756;DHT22;27435;48.480;9.258;2022-12-24T16:29:53;9.30;99.00
41756;DHT22;27435;48.480;9.258;2022-12-24T16:32:46;9.30;99.00
41756;DHT22;27435;48.480;9.258;2022-12-24T16:35:25;9.20;99.00
41756;DHT22;27435;48.480;9.258;2022-12-24T16:37:53;9.30;99.00
41756;DHT22;27435;48.480;9.258;2022-12-24T16:40:19;9.30;99.00
41756;DHT22;27435;48.480;9.258;2022-12-24T16:42:45;9.30;99.00
41756;DHT22;27435;48.480;9.258;2022-12-24T16:45:29;9.30;99.00
41756;DHT22;27435;48.480;9.258;2022-12-24T16:47:57;9.30;99.00
41756;DHT22;27435;48.480;9.258;2022-12-24T16:50:23;9.40;99.00
41756;DHT22;27435;48.480;9.258;2022-12-24T16:52:48;9.40;99.00
41756;DHT22;27435;48.480;9.258;2022-12-24T16:55:15;9.40;99.00
41756;DHT22;27435;48.480;9.258;2022-12-24T16:57:41;9.40;99.00
41756;DHT22;27435;48.480;9.258;2022-12-24T17:00:13;9.40;99.00
41756;DHT22;27435;48.480;9.258;2022-12-24T17:02:39;9.40;99.00
41756;DHT22;27435;48.480;9.258;2022-12-24T17:05:05;9.40;99.00
41756;DHT22;27435;48.480;9.258;2022-12-24T17:07:30;9.30;99.00
41756;DHT22;27435;48.480;9.258;2022-12-24T17:09:56;9.40;99.00
41756;DHT22;27435;48.480;9.258;2022-12-24T17:12:22;9.50;99.00
41756;DHT22;27435;48.480;9.258;2022-12-24T17:14:47;9.50;99.00
41756;DHT22;27435;48.480;9.258;2022-12-24T17:17:22;9.50;99.00
41756;DHT22;27435;48.480;9.258;2022-12-24T17:19:48;9.50;99.00
41756;DHT22;27435;48.480;9.258;2022-12-24T17:22:14;9.50;99.00
41756;DHT22;27435;48.480;9.258;2022-12-24T17:24:39;9.50;99.00
41756;DHT22;27435;48.480;9.258;2022-12-24T17:27:05;9.50;99.00
41756;DHT22;27435;48.480;9.258;2022-12-24T17:29:31;9.50;99.00
41756;DHT22;27435;48.480;9.258;2022-12-24T17:31:56;9.50;99.00
41756;DHT22;27435;48.480;9.258;2022-12-24T17:34:22;9.60;99.00
41756;DHT22;27435;48.480;9.258;2022-12-24T17:36:47;9.60;99.00
41756;DHT22;27435;48.480;9.258;2022-12-24T17:39:13;9.50;99.00
41756;DHT22;27435;48.480;9.258;2022-12-24T17:41:39;9.50;99.00
41756;DHT22;27435;48.480;9.258;2022-12-24T17:44:04;9.50;99.00
41756;DHT22;27435;48.480;9.258;2022-12-24T17:46:33;9.60;99.00
41756;DHT22;27435;48.480;9.258;2022-12-24T17:48:58;9.60;99.00
41756;DHT22;27435;48.480;9.258;2022-12-24T17:51:24;9.50;99.00
41756;DHT22;27435;48.480;9.258;2022-12-24T17:53:50;9.40;99.00
41756;DHT22;27435;48.480;9.258;2022-12-24T17:56:16;9.50;99.00